Terminal Aerodrome Forecast
Issued by NWS

Home | Current Version | Previous Version | Text Only | Print | Product List | Glossary On
Versions: 1 2 3 4 5 6 7 8 9 10 11 12 13 14 15
000
FTUS45 KRIW 201100
TAFCPR
TAF
KCPR 201123Z 2012/2112 22010KT P6SM SKC
     FM201600 22013G21KT P6SM SKC
     FM202300 22009KT P6SM FEW150=

USA.gov is the U.S. government's official web portal to all federal, state and local government web resources and services.